Time;durP1;ratioP1;P1;durP2;ratioP2;P2;SDS_P1;SDS_P2;PMS_P1;PMS_P2;Temp;Humidity;BMP_temperature;BMP_pressure;BME280_temperature;BME280_humidity;BME280_pressure;Samples;Min_cycle;Max_cycle;Signal;HPM_P1;HPM_P2
2022/05/10 00:01:24;;;;;;;12.38;6.32;;;12.90;99.90;;;;;;5007907;28;20069;-82
2022/05/10 00:03:50;;;;;;;18.05;6.47;;;12.90;99.90;;;;;;5008565;28;20042;-82
2022/05/10 00:06:16;;;;;;;9.52;5.40;;;12.90;99.90;;;;;;5007735;28;20096;-81
2022/05/10 00:08:43;;;;;;;15.52;6.68;;;12.80;99.90;;;;;;5008828;28;20125;-83
2022/05/10 00:11:09;;;;;;;12.35;6.90;;;12.80;99.90;;;;;;5007574;28;20120;-82
2022/05/10 00:13:36;;;;;;;15.50;5.75;;;12.90;99.90;;;;;;5008933;28;20099;-79
2022/05/10 00:16:08;;;;;;;10.35;6.30;;;12.90;99.90;;;;;;5008917;28;20077;-81
2022/05/10 00:18:33;;;;;;;13.85;5.53;;;12.90;99.90;;;;;;5008935;28;20057;-79
2022/05/10 00:21:00;;;;;;;17.83;7.20;;;12.90;99.90;;;;;;5008598;28;20038;-80
2022/05/10 00:23:25;;;;;;;13.00;5.60;;;12.80;99.90;;;;;;5008437;28;20041;-82
2022/05/10 00:25:51;;;;;;;11.18;5.38;;;12.80;99.90;;;;;;5006148;28;20045;-80
2022/05/10 00:28:17;;;;;;;11.82;6.05;;;12.80;99.90;;;;;;5008331;28;20050;-82
2022/05/10 00:30:43;;;;;;;13.70;6.28;;;12.80;99.90;;;;;;5008028;28;20057;-80
2022/05/10 00:33:15;;;;;;;16.27;5.68;;;12.70;99.90;;;;;;5008054;28;20046;-81
2022/05/10 00:35:41;;;;;;;15.73;5.13;;;12.70;99.90;;;;;;5022870;28;20053;-82
2022/05/10 00:38:06;;;;;;;12.98;5.43;;;12.70;99.90;;;;;;5008201;28;20045;-82
2022/05/10 00:40:35;;;;;;;18.35;5.35;;;12.60;99.90;;;;;;5007391;28;20038;-83
2022/05/10 00:43:06;;;;;;;12.25;5.70;;;12.50;99.90;;;;;;5008085;28;20046;-79
2022/05/10 00:45:52;;;;;;;14.13;6.68;;;12.50;99.90;;;;;;5008385;28;20057;-82
2022/05/10 00:48:30;;;;;;;19.25;7.72;;;12.50;99.90;;;;;;5007692;28;20038;-81
2022/05/10 00:51:12;;;;;;;9.20;6.28;;;12.50;99.90;;;;;;5007904;28;20215;-81
2022/05/10 00:53:37;;;;;;;16.52;7.38;;;12.50;99.90;;;;;;5008625;28;20411;-83
2022/05/10 00:56:08;;;;;;;15.20;6.90;;;12.50;99.90;;;;;;5007230;28;20053;-80
2022/05/10 00:58:43;;;;;;;13.57;6.53;;;12.50;99.90;;;;;;5008212;28;20050;-80
2022/05/10 01:01:11;;;;;;;11.15;7.10;;;12.50;99.90;;;;;;5007782;28;20056;-81
2022/05/10 01:03:50;;;;;;;11.00;5.05;;;12.50;99.90;;;;;;5007993;28;20627;-82
2022/05/10 01:06:25;;;;;;;10.70;6.55;;;12.50;99.90;;;;;;5007595;28;20050;-80
2022/05/10 01:09:06;;;;;;;13.05;6.72;;;12.50;99.90;;;;;;5006838;28;20088;-80
2022/05/10 01:11:38;;;;;;;19.85;6.18;;;12.40;99.90;;;;;;5006645;28;20050;-81
2022/05/10 01:14:22;;;;;;;17.38;6.53;;;12.40;99.90;;;;;;5006357;28;20615;-80
2022/05/10 01:16:47;;;;;;;14.02;6.50;;;12.30;99.90;;;;;;5007527;28;20105;-79
2022/05/10 01:19:14;;;;;;;19.13;7.15;;;12.20;99.90;;;;;;5006192;28;20045;-80
2022/05/10 01:21:48;;;;;;;11.48;6.00;;;12.30;99.90;;;;;;5007165;28;20048;-81
2022/05/10 01:24:38;;;;;;;11.68;6.88;;;12.20;99.90;;;;;;5005263;28;20050;-81
2022/05/10 01:27:35;;;;;;;13.05;7.95;;;12.20;99.90;;;;;;5007192;28;20038;-82
2022/05/10 01:30:06;;;;;;;10.60;6.13;;;12.20;99.90;;;;;;5007274;28;20057;-78
2022/05/10 01:35:43;;;;;;;21.25;8.10;;;12.20;99.90;;;;;;5005866;28;20045;-80
2022/05/10 01:38:25;;;;;;;11.63;6.78;;;12.20;99.90;;;;;;5005397;28;20053;-81
2022/05/10 01:40:56;;;;;;;12.45;6.88;;;12.20;99.90;;;;;;5004729;28;20489;-81
2022/05/10 01:43:39;;;;;;;16.73;7.07;;;12.10;99.90;;;;;;5006588;28;20056;-81
2022/05/10 01:46:16;;;;;;;19.48;8.10;;;12.20;99.90;;;;;;5005550;28;20042;-80
2022/05/10 01:48:46;;;;;;;17.33;7.05;;;12.20;99.90;;;;;;5006926;28;20116;-81
2022/05/10 01:51:19;;;;;;;11.48;6.65;;;12.20;99.90;;;;;;5005069;28;20046;-80
2022/05/10 01:53:45;;;;;;;22.35;7.80;;;12.20;99.90;;;;;;5006547;28;20049;-79
2022/05/10 01:56:20;;;;;;;11.70;7.25;;;12.30;99.90;;;;;;5005437;28;20571;-80
2022/05/10 01:58:47;;;;;;;14.02;5.97;;;12.30;99.90;;;;;;5005640;28;20500;-81
2022/05/10 02:01:21;;;;;;;15.82;6.15;;;12.30;99.90;;;;;;5006409;28;20129;-81
2022/05/10 02:04:09;;;;;;;9.23;7.82;;;12.30;99.90;;;;;;5006881;28;20042;-75
2022/05/10 02:06:45;;;;;;;12.98;7.47;;;12.30;99.90;;;;;;5006714;28;20049;-79
2022/05/10 02:09:37;;;;;;;17.27;7.30;;;12.20;99.90;;;;;;5006076;28;20096;-80
2022/05/10 02:12:16;;;;;;;10.65;6.53;;;12.20;99.90;;;;;;5005513;28;20061;-78
2022/05/10 02:14:49;;;;;;;12.55;6.25;;;12.10;99.90;;;;;;5006418;28;20042;-81
2022/05/10 02:17:39;;;;;;;11.95;7.15;;;12.10;99.90;;;;;;5007002;28;20030;-80
2022/05/10 02:20:10;;;;;;;22.88;8.85;;;12.10;99.90;;;;;;5006473;28;20042;-79
2022/05/10 02:22:48;;;;;;;14.38;6.63;;;12.00;99.90;;;;;;5007949;28;20123;-81
2022/05/10 02:25:24;;;;;;;11.35;6.82;;;12.00;99.90;;;;;;5005833;28;20404;-81
2022/05/10 02:27:57;;;;;;;17.98;8.32;;;12.00;99.90;;;;;;5006463;28;20480;-82
2022/05/10 02:30:26;;;;;;;16.45;7.95;;;12.00;99.90;;;;;;5006172;28;20133;-80
2022/05/10 02:33:06;;;;;;;12.38;7.18;;;12.10;99.90;;;;;;5006004;28;20054;-80
2022/05/10 02:35:55;;;;;;;20.42;8.45;;;12.00;99.90;;;;;;5006641;28;20157;-81
2022/05/10 02:38:30;;;;;;;11.95;8.27;;;12.10;99.90;;;;;;5005841;28;20046;-79
2022/05/10 02:40:59;;;;;;;15.40;7.78;;;12.10;99.90;;;;;;5005039;28;20050;-80
2022/05/10 02:43:28;;;;;;;14.95;7.72;;;12.20;99.90;;;;;;5005901;28;20389;-81
2022/05/10 02:45:55;;;;;;;14.85;8.85;;;12.20;99.90;;;;;;5005981;28;20057;-81
2022/05/10 02:48:29;;;;;;;9.02;7.28;;;12.20;99.90;;;;;;5005912;28;20192;-80
2022/05/10 02:50:55;;;;;;;12.80;7.70;;;12.20;99.90;;;;;;5005802;28;20052;-81
2022/05/10 02:53:21;;;;;;;15.27;7.32;;;12.20;99.90;;;;;;5005863;28;20049;-84
2022/05/10 02:56:01;;;;;;;19.45;8.57;;;12.20;99.90;;;;;;5004854;28;20425;-81
2022/05/10 02:59:01;;;;;;;15.70;6.85;;;12.30;99.90;;;;;;5004604;28;20050;-80
2022/05/10 03:01:41;;;;;;;11.77;7.68;;;12.30;99.90;;;;;;5005519;28;20058;-80
2022/05/10 03:04:08;;;;;;;16.85;8.85;;;12.30;99.90;;;;;;5008685;28;20096;-81
2022/05/10 03:06:36;;;;;;;14.38;8.02;;;12.30;99.90;;;;;;5009177;28;20045;-80
2022/05/10 03:09:03;;;;;;;14.30;7.45;;;12.20;99.90;;;;;;5009038;28;20078;-81
2022/05/10 03:11:29;;;;;;;17.27;9.60;;;12.20;99.90;;;;;;5010071;28;20569;-81
2022/05/10 03:13:55;;;;;;;10.88;7.80;;;12.10;99.90;;;;;;5010195;28;20041;-81
2022/05/10 03:16:25;;;;;;;17.67;8.00;;;12.20;99.90;;;;;;5009327;28;20046;-81
2022/05/10 03:18:52;;;;;;;15.15;7.47;;;12.20;99.90;;;;;;5009817;28;20050;-81
2022/05/10 03:21:18;;;;;;;13.15;7.65;;;12.20;99.90;;;;;;5009590;28;20049;-81
2022/05/10 03:23:44;;;;;;;16.88;7.00;;;12.20;99.90;;;;;;5008747;28;20128;-80
2022/05/10 03:26:12;;;;;;;14.02;7.38;;;12.20;99.90;;;;;;5008031;28;20034;-80
2022/05/10 03:28:38;;;;;;;20.30;7.85;;;12.20;99.90;;;;;;5009482;28;20045;-77
2022/05/10 03:31:06;;;;;;;16.50;8.73;;;12.30;99.90;;;;;;5008001;28;20053;-81
2022/05/10 03:33:32;;;;;;;18.92;8.48;;;12.30;99.90;;;;;;5010178;28;20073;-80
2022/05/10 03:35:57;;;;;;;14.55;8.45;;;12.30;99.90;;;;;;5009276;28;20500;-80
2022/05/10 03:38:23;;;;;;;12.90;8.65;;;12.30;99.90;;;;;;5009003;28;20901;-81
2022/05/10 03:40:48;;;;;;;18.60;9.30;;;12.40;99.90;;;;;;5006877;28;20049;-80
2022/05/10 03:43:14;;;;;;;15.13;8.93;;;12.40;99.90;;;;;;5009695;28;20165;-81
2022/05/10 03:45:40;;;;;;;14.90;7.85;;;12.30;99.90;;;;;;5010587;28;20073;-82
2022/05/10 03:48:06;;;;;;;13.48;8.00;;;12.30;99.90;;;;;;5012014;28;20467;-79
2022/05/10 03:50:32;;;;;;;17.13;8.57;;;12.40;99.90;;;;;;5009823;28;20045;-81
2022/05/10 03:52:58;;;;;;;10.90;8.10;;;12.40;99.90;;;;;;4991518;28;20129;-80
2022/05/10 03:55:26;;;;;;;14.55;8.55;;;12.50;99.90;;;;;;4990660;28;20415;-80
2022/05/10 03:57:52;;;;;;;19.55;8.02;;;12.50;99.90;;;;;;5011262;28;20045;-82
2022/05/10 04:00:23;;;;;;;15.98;9.55;;;12.50;99.90;;;;;;5012524;28;20073;-81
2022/05/10 04:02:50;;;;;;;19.25;8.23;;;12.50;99.90;;;;;;5010856;28;20076;-81
2022/05/10 04:05:17;;;;;;;22.48;11.35;;;12.50;99.90;;;;;;5009294;28;20034;-82
2022/05/10 04:07:42;;;;;;;13.55;8.50;;;12.60;99.90;;;;;;5008797;28;20181;-81
2022/05/10 04:10:10;;;;;;;18.67;9.00;;;12.60;99.90;;;;;;5006220;28;20159;-80
2022/05/10 04:12:37;;;;;;;18.40;10.38;;;12.70;99.90;;;;;;5010144;28;20041;-80
2022/05/10 04:15:05;;;;;;;15.77;8.18;;;12.70;99.90;;;;;;5007334;28;20069;-79
2022/05/10 04:17:30;;;;;;;22.70;10.15;;;12.70;99.90;;;;;;5024576;28;20196;-79
2022/05/10 04:19:56;;;;;;;15.52;9.40;;;12.80;99.90;;;;;;4991038;28;20648;-80
2022/05/10 04:22:21;;;;;;;18.60;9.75;;;12.80;99.90;;;;;;5006847;28;20042;-82
2022/05/10 04:24:47;;;;;;;20.92;10.82;;;12.90;99.90;;;;;;5007173;28;20045;-81
2022/05/10 04:27:13;;;;;;;13.25;9.13;;;12.90;99.90;;;;;;5008083;28;20048;-82
2022/05/10 04:29:39;;;;;;;16.77;8.43;;;12.90;99.90;;;;;;5006595;28;20507;-79
2022/05/10 04:32:05;;;;;;;19.70;9.43;;;13.00;99.90;;;;;;5006812;28;20064;-80
2022/05/10 04:34:30;;;;;;;15.23;9.25;;;13.00;99.90;;;;;;5009261;28;20046;-80
2022/05/10 04:36:56;;;;;;;17.80;9.52;;;13.10;99.90;;;;;;5008231;28;20045;-81
2022/05/10 04:39:22;;;;;;;20.45;10.05;;;13.10;99.90;;;;;;5006721;28;20488;-81
2022/05/10 04:41:52;;;;;;;15.95;9.07;;;13.10;99.90;;;;;;5006700;28;20048;-79
2022/05/10 04:44:18;;;;;;;14.75;8.45;;;13.10;99.90;;;;;;5007950;28;20054;-80
2022/05/10 04:46:43;;;;;;;16.08;10.05;;;13.10;99.90;;;;;;5008066;28;20045;-82
2022/05/10 04:49:13;;;;;;;13.68;9.00;;;13.20;99.90;;;;;;5006571;28;20049;-82
2022/05/10 04:51:40;;;;;;;22.70;11.80;;;13.20;99.90;;;;;;5007679;28;20108;-79
2022/05/10 04:54:06;;;;;;;20.70;10.48;;;13.10;99.90;;;;;;5006881;28;20104;-81
2022/05/10 04:56:32;;;;;;;15.43;8.85;;;13.20;99.90;;;;;;4991566;28;20195;-80
2022/05/10 04:58:58;;;;;;;12.35;9.10;;;13.20;99.90;;;;;;5007935;28;20622;-81
2022/05/10 05:01:27;;;;;;;14.38;9.40;;;13.20;99.90;;;;;;5006095;28;20050;-80
2022/05/10 05:03:59;;;;;;;15.80;9.40;;;13.20;99.90;;;;;;5006177;28;20475;-80
2022/05/10 05:06:25;;;;;;;17.15;9.57;;;13.30;99.90;;;;;;5006226;28;20133;-80
2022/05/10 05:08:51;;;;;;;14.88;8.45;;;13.20;99.90;;;;;;5021902;28;20042;-79
2022/05/10 05:11:17;;;;;;;18.30;10.88;;;13.30;99.90;;;;;;5007677;28;20053;-80
2022/05/10 05:13:43;;;;;;;18.63;10.45;;;13.30;99.90;;;;;;5005941;28;20045;-80
2022/05/10 05:16:09;;;;;;;20.17;10.20;;;13.40;99.90;;;;;;4990045;28;20042;-79
2022/05/10 05:18:35;;;;;;;20.38;11.15;;;13.40;99.90;;;;;;5006179;28;20049;-78
2022/05/10 05:21:01;;;;;;;13.77;10.38;;;13.40;99.90;;;;;;5007215;28;20038;-79
2022/05/10 05:23:27;;;;;;;17.92;9.85;;;13.40;99.90;;;;;;5006303;28;20054;-79
2022/05/10 05:25:53;;;;;;;17.95;10.52;;;13.60;99.90;;;;;;5005111;28;20413;-80
2022/05/10 05:28:19;;;;;;;15.48;9.63;;;13.60;99.90;;;;;;5007293;28;20042;-80
2022/05/10 05:30:45;;;;;;;15.88;9.75;;;13.60;99.90;;;;;;5005847;28;20552;-80
2022/05/10 05:33:12;;;;;;;15.52;10.65;;;13.70;99.90;;;;;;5007431;28;20046;-80
2022/05/10 05:35:38;;;;;;;13.52;10.40;;;13.80;99.90;;;;;;5005782;28;20096;-80
2022/05/10 05:38:03;;;;;;;14.55;9.55;;;13.80;99.90;;;;;;5007140;28;20507;-77
2022/05/10 05:40:29;;;;;;;13.48;9.40;;;13.90;99.90;;;;;;5006836;28;20049;-81
2022/05/10 05:42:55;;;;;;;16.80;8.48;;;14.00;99.90;;;;;;4989204;28;20173;-79
2022/05/10 05:45:23;;;;;;;15.65;9.40;;;14.10;99.90;;;;;;5006838;28;20104;-80
2022/05/10 05:47:50;;;;;;;12.35;8.73;;;14.20;99.90;;;;;;5006027;28;20057;-81
2022/05/10 05:50:18;;;;;;;23.55;10.80;;;14.30;99.90;;;;;;5007226;28;20046;-79
2022/05/10 05:52:45;;;;;;;13.73;9.90;;;14.40;99.90;;;;;;5005537;28;20050;-80
2022/05/10 05:55:11;;;;;;;17.25;8.80;;;14.50;99.90;;;;;;5005673;28;20078;-81
2022/05/10 05:57:37;;;;;;;13.88;10.50;;;14.60;99.90;;;;;;5007112;28;20401;-79
2022/05/10 06:00:08;;;;;;;14.20;9.05;;;14.70;99.90;;;;;;5006917;28;20053;-79
2022/05/10 06:02:34;;;;;;;12.00;8.75;;;14.80;99.90;;;;;;5006185;28;20077;-79
2022/05/10 06:05:01;;;;;;;13.88;8.90;;;14.90;99.90;;;;;;5021807;28;20124;-81
2022/05/10 06:07:27;;;;;;;11.43;8.32;;;14.90;99.90;;;;;;5006396;28;20092;-81
2022/05/10 06:09:52;;;;;;;21.63;9.00;;;15.00;99.90;;;;;;5004616;28;20045;-81
2022/05/10 06:12:20;;;;;;;20.92;8.80;;;15.10;99.90;;;;;;4988530;28;20048;-81
2022/05/10 06:14:47;;;;;;;17.95;9.98;;;15.20;99.90;;;;;;4989337;28;20034;-81
2022/05/10 06:17:15;;;;;;;27.40;12.77;;;15.40;99.90;;;;;;5006283;28;20136;-81
2022/05/10 06:19:42;;;;;;;14.18;9.13;;;15.50;99.90;;;;;;5004812;28;20092;-81
2022/05/10 06:22:10;;;;;;;13.15;8.32;;;15.60;99.90;;;;;;4988389;28;20065;-80
2022/05/10 06:24:36;;;;;;;17.33;9.75;;;15.80;99.90;;;;;;5004446;28;20030;-81
2022/05/10 06:27:04;;;;;;;12.45;8.68;;;15.80;99.90;;;;;;5005206;28;20061;-79
2022/05/10 06:29:30;;;;;;;14.50;8.50;;;15.90;99.90;;;;;;4989274;28;20456;-80
2022/05/10 06:31:56;;;;;;;12.38;8.90;;;16.10;99.90;;;;;;5021095;28;20038;-80
2022/05/10 06:34:22;;;;;;;9.30;6.85;;;16.10;99.90;;;;;;4988246;28;20049;-79
2022/05/10 06:36:47;;;;;;;11.35;7.75;;;16.10;99.90;;;;;;5006204;28;20050;-80
2022/05/10 06:39:13;;;;;;;13.57;7.20;;;16.20;99.90;;;;;;4989457;28;20480;-79
2022/05/10 06:41:39;;;;;;;12.80;8.77;;;16.30;99.90;;;;;;5005091;28;20058;-79
2022/05/10 06:44:05;;;;;;;12.45;7.93;;;16.40;99.90;;;;;;5005641;28;20478;-79
2022/05/10 06:46:34;;;;;;;15.07;8.27;;;16.50;99.90;;;;;;5004954;28;20050;-79
2022/05/10 06:49:01;;;;;;;10.70;7.10;;;16.60;99.90;;;;;;5006347;28;20038;-79
2022/05/10 06:51:27;;;;;;;16.50;8.10;;;16.70;99.90;;;;;;5004308;28;20516;-78
2022/05/10 06:53:53;;;;;;;9.95;6.72;;;16.80;99.90;;;;;;5003355;28;20079;-80
2022/05/10 06:56:20;;;;;;;6.63;5.57;;;16.90;99.90;;;;;;5005917;28;20179;-77
2022/05/10 06:58:46;;;;;;;23.95;8.70;;;17.00;99.90;;;;;;5006169;28;20088;-80
2022/05/10 07:01:12;;;;;;;11.45;6.85;;;17.20;99.90;;;;;;5004552;28;20077;-81
2022/05/10 07:03:46;;;;;;;12.02;7.65;;;17.40;99.90;;;;;;5004765;28;20050;-80
2022/05/10 07:06:14;;;;;;;9.77;6.57;;;17.60;99.90;;;;;;5006035;28;20461;-79
2022/05/10 07:08:39;;;;;;;11.85;6.85;;;17.80;99.90;;;;;;5005132;28;20054;-79
2022/05/10 07:11:06;;;;;;;11.35;6.82;;;17.90;99.90;;;;;;5005806;28;20045;-79
2022/05/10 07:13:32;;;;;;;10.13;7.32;;;18.00;99.90;;;;;;5004815;28;20054;-80
2022/05/10 07:15:58;;;;;;;10.05;6.25;;;18.10;99.90;;;;;;5006025;28;20420;-81
2022/05/10 07:18:24;;;;;;;9.30;5.38;;;18.20;99.90;;;;;;5004388;28;20053;-82
2022/05/10 07:20:51;;;;;;;11.07;5.82;;;18.20;99.90;;;;;;5005910;28;20081;-81
2022/05/10 07:23:29;;;;;;;12.50;6.85;;;18.30;99.90;;;;;;5004652;28;20401;-78
2022/05/10 07:25:55;;;;;;;9.95;6.93;;;18.40;99.90;;;;;;5004327;28;20053;-80
2022/05/10 07:28:21;;;;;;;13.75;8.13;;;18.30;99.90;;;;;;5005339;28;20065;-79
2022/05/10 07:30:47;;;;;;;14.88;6.13;;;18.20;99.90;;;;;;5006043;28;20042;-77
2022/05/10 07:33:13;;;;;;;8.70;6.82;;;18.20;99.90;;;;;;5005752;28;20038;-81
2022/05/10 07:38:23;;;;;;;13.68;6.18;;;18.20;99.90;;;;;;5004546;28;20245;-81
2022/05/10 07:40:50;;;;;;;16.95;5.85;;;18.20;99.90;;;;;;5005574;28;20408;-81
2022/05/10 07:43:17;;;;;;;7.05;5.07;;;18.20;99.90;;;;;;5005469;28;20057;-81
2022/05/10 07:45:45;;;;;;;9.30;5.43;;;18.30;99.90;;;;;;5005426;28;20042;-81
2022/05/10 07:48:12;;;;;;;26.88;7.85;;;18.30;99.90;;;;;;5006602;28;20077;-82
2022/05/10 07:50:38;;;;;;;13.57;4.63;;;18.40;99.90;;;;;;5010326;28;20046;-81
2022/05/10 07:53:06;;;;;;;13.45;5.35;;;18.50;99.90;;;;;;5008307;28;20424;-77
2022/05/10 07:55:35;;;;;;;6.97;4.35;;;18.60;99.90;;;;;;5009755;28;20042;-82
2022/05/10 07:58:01;;;;;;;10.15;4.63;;;18.70;99.90;;;;;;5008238;28;20042;-81
2022/05/10 08:00:27;;;;;;;8.80;5.30;;;18.70;99.90;;;;;;5008914;28;20595;-81
2022/05/10 08:02:53;;;;;;;10.20;5.13;;;18.70;99.90;;;;;;5007764;28;20414;-82
2022/05/10 08:05:23;;;;;;;6.75;4.43;;;18.70;99.90;;;;;;5009164;28;20389;-82
2022/05/10 08:07:50;;;;;;;10.20;4.38;;;18.80;99.90;;;;;;5007787;28;20038;-81
2022/05/10 08:10:17;;;;;;;13.18;5.45;;;18.80;99.90;;;;;;5008827;28;20049;-82
2022/05/10 08:12:43;;;;;;;8.80;4.68;;;18.90;99.90;;;;;;5007506;28;20053;-82
2022/05/10 08:15:10;;;;;;;9.20;4.35;;;19.00;99.90;;;;;;5008751;28;20497;-80
2022/05/10 08:17:35;;;;;;;12.02;4.88;;;19.10;99.90;;;;;;5007867;28;20149;-81
2022/05/10 08:20:01;;;;;;;12.75;4.25;;;19.30;99.90;;;;;;5008922;28;20374;-80
2022/05/10 08:22:26;;;;;;;14.48;4.88;;;19.40;99.90;;;;;;5008479;28;20092;-81
2022/05/10 08:24:53;;;;;;;10.32;4.03;;;19.50;99.90;;;;;;5008243;28;20408;-81
2022/05/10 08:27:19;;;;;;;19.65;4.57;;;19.70;99.90;;;;;;5008764;28;20050;-81
2022/05/10 08:29:45;;;;;;;7.10;4.05;;;19.70;99.90;;;;;;5007616;28;20052;-81
2022/05/10 08:32:11;;;;;;;11.25;4.00;;;19.80;99.90;;;;;;5008794;28;20419;-81
2022/05/10 08:34:37;;;;;;;10.75;3.42;;;19.80;99.90;;;;;;5008774;28;20069;-80
2022/05/10 08:37:04;;;;;;;4.88;3.00;;;19.80;99.90;;;;;;5008429;28;20188;-77
2022/05/10 08:39:30;;;;;;;10.68;4.78;;;19.80;99.90;;;;;;5006695;28;20041;-80
2022/05/10 08:42:04;;;;;;;8.23;4.10;;;19.90;99.90;;;;;;5008870;28;20042;-80
2022/05/10 08:44:35;;;;;;;7.82;3.63;;;19.90;99.90;;;;;;5008897;28;20116;-80
2022/05/10 08:47:07;;;;;;;11.07;4.15;;;19.90;99.90;;;;;;5008341;28;20046;-76
2022/05/10 08:49:42;;;;;;;16.45;4.38;;;20.00;99.90;;;;;;5008724;28;20050;-81
2022/05/10 08:52:08;;;;;;;10.20;3.55;;;20.10;99.90;;;;;;5007940;28;20124;-77
2022/05/10 08:54:37;;;;;;;8.65;3.42;;;20.10;99.90;;;;;;5007424;28;20080;-76
2022/05/10 08:57:11;;;;;;;5.93;3.20;;;20.20;99.90;;;;;;5008280;28;20073;-78
2022/05/10 08:59:50;;;;;;;5.45;3.15;;;20.30;99.90;;;;;;5007362;28;20046;-81
2022/05/10 09:02:23;;;;;;;9.82;2.50;;;20.30;99.90;;;;;;5023515;28;20130;-80
2022/05/10 09:05:06;;;;;;;6.90;3.40;;;20.30;99.90;;;;;;5023325;28;20038;-80
2022/05/10 09:07:48;;;;;;;5.85;3.47;;;20.40;99.90;;;;;;5022033;28;20435;-77
2022/05/10 09:10:25;;;;;;;13.02;4.32;;;20.50;99.90;;;;;;5007853;28;20049;-80
2022/05/10 09:12:58;;;;;;;4.55;3.30;;;20.60;99.90;;;;;;5008182;28;20041;-81
2022/05/10 09:15:26;;;;;;;7.78;4.22;;;20.80;99.90;;;;;;5006768;28;20045;-80
2022/05/10 09:17:52;;;;;;;9.02;3.33;;;20.90;99.90;;;;;;5009009;28;20050;-80
2022/05/10 09:20:17;;;;;;;7.97;3.88;;;20.90;99.90;;;;;;5028142;28;20381;-79
2022/05/10 09:23:21;;;;;;;8.65;5.00;;;20.90;99.90;;;;;;5012523;28;20042;-81
2022/05/10 09:25:48;;;;;;;11.18;4.45;;;21.00;99.90;;;;;;5010052;28;20057;-80
2022/05/10 09:28:33;;;;;;;13.27;6.10;;;21.00;99.90;;;;;;5008023;28;20046;-80
2022/05/10 09:37:10;;;;;;;8.30;4.88;;;21.50;99.90;;;;;;5013537;28;20077;-79
2022/05/10 09:39:36;;;;;;;10.73;4.68;;;21.40;99.90;;;;;;5010301;28;20053;-80
2022/05/10 09:42:02;;;;;;;12.27;4.68;;;21.20;99.90;;;;;;5007452;28;20030;-80
2022/05/10 09:44:29;;;;;;;10.05;4.85;;;21.20;99.90;;;;;;5007259;28;20513;-81
2022/05/10 09:47:15;;;;;;;13.60;5.72;;;21.10;99.90;;;;;;5007340;28;20054;-80
2022/05/10 09:49:41;;;;;;;13.68;5.00;;;21.10;99.90;;;;;;5006950;28;20045;-80
2022/05/10 09:52:20;;;;;;;10.50;4.10;;;21.20;99.90;;;;;;5006662;28;20045;-79
2022/05/10 09:54:48;;;;;;;13.60;4.85;;;21.50;99.90;;;;;;5005237;28;20408;-81
2022/05/10 09:57:34;;;;;;;9.32;6.00;;;21.70;99.90;;;;;;5022335;28;20050;-80
2022/05/10 10:00:00;;;;;;;12.50;6.93;;;21.90;99.90;;;;;;5007957;28;20042;-80
2022/05/10 10:02:27;;;;;;;9.52;5.43;;;21.70;99.90;;;;;;5006489;28;20073;-80
2022/05/10 10:04:53;;;;;;;13.43;6.07;;;21.70;99.90;;;;;;5007371;28;20096;-81
2022/05/10 10:07:25;;;;;;;16.17;6.40;;;21.90;99.90;;;;;;5007217;28;20046;-80
2022/05/10 10:09:55;;;;;;;15.30;6.30;;;21.90;99.90;;;;;;5021425;28;20133;-80
2022/05/10 10:12:37;;;;;;;10.23;5.67;;;21.80;99.90;;;;;;5006406;28;20393;-80
2022/05/10 10:15:18;;;;;;;8.30;4.55;;;21.90;99.90;;;;;;5006796;28;20037;-77
2022/05/10 10:17:54;;;;;;;13.68;6.93;;;21.90;99.90;;;;;;5005702;28;20050;-81
2022/05/10 10:20:32;;;;;;;11.10;6.25;;;22.00;99.90;;;;;;5006674;28;20045;-79
2022/05/10 10:23:01;;;;;;;12.93;5.60;;;22.10;99.90;;;;;;5005805;28;20509;-80
2022/05/10 10:25:45;;;;;;;9.73;5.85;;;22.10;99.90;;;;;;5006536;28;20577;-80
2022/05/10 10:28:29;;;;;;;9.52;5.10;;;22.10;99.90;;;;;;5007115;28;20128;-80
2022/05/10 10:30:59;;;;;;;11.82;5.05;;;22.00;99.90;;;;;;5005563;28;20051;-81
2022/05/10 10:34:04;;;;;;;13.88;5.32;;;21.80;99.90;;;;;;5005101;28;20054;-80
2022/05/10 10:36:56;;;;;;;9.00;3.50;;;21.80;99.90;;;;;;5007295;28;20049;-82
2022/05/10 10:39:43;;;;;;;17.80;4.85;;;21.70;99.90;;;;;;5004674;28;20065;-80
2022/05/10 10:42:14;;;;;;;8.93;4.13;;;21.50;99.90;;;;;;5008199;28;20089;-81
2022/05/10 10:44:50;;;;;;;7.78;3.75;;;21.40;99.90;;;;;;5010530;28;20058;-81
2022/05/10 10:47:24;;;;;;;16.13;5.03;;;21.40;99.90;;;;;;5011125;28;20050;-80
2022/05/10 10:50:06;;;;;;;13.18;4.82;;;21.20;99.90;;;;;;5011952;28;20061;-80
2022/05/10 10:52:31;;;;;;;15.48;4.72;;;21.10;99.90;;;;;;5011308;28;20049;-80
2022/05/10 10:54:58;;;;;;;9.15;6.00;;;21.00;99.90;;;;;;5010859;28;20045;-81
2022/05/10 10:57:46;;;;;;;5.50;3.97;;;21.00;99.90;;;;;;5026469;28;20084;-80
2022/05/10 11:00:26;;;;;;;8.75;4.68;;;20.90;99.90;;;;;;5010717;28;20121;-80
2022/05/10 11:03:04;;;;;;;20.55;4.90;;;20.90;99.90;;;;;;5012141;28;20655;-81
2022/05/10 11:05:45;;;;;;;15.80;6.95;;;20.90;99.90;;;;;;5007283;28;20429;-79
2022/05/10 11:08:48;;;;;;;9.35;5.25;;;21.00;99.90;;;;;;5007962;28;20539;-79
2022/05/10 11:11:21;;;;;;;8.52;5.50;;;21.10;99.90;;;;;;5001662;28;20112;-80
2022/05/10 11:14:05;;;;;;;8.80;5.53;;;21.20;99.90;;;;;;5009487;28;20041;-78
2022/05/10 11:16:42;;;;;;;7.57;5.85;;;21.30;99.90;;;;;;5008194;28;20045;-81
2022/05/10 11:19:45;;;;;;;8.77;6.63;;;21.50;99.90;;;;;;5007672;28;20077;-78
2022/05/10 11:22:37;;;;;;;10.98;5.88;;;21.70;99.90;;;;;;5008001;28;20434;-79
2022/05/10 11:25:31;;;;;;;12.48;5.28;;;21.80;99.90;;;;;;5013528;28;20395;-77
2022/05/10 11:28:11;;;;;;;12.05;7.40;;;21.80;99.90;;;;;;5012675;28;20128;-79
2022/05/10 11:30:50;;;;;;;13.48;7.07;;;21.90;99.90;;;;;;4994360;28;20046;-81
2022/05/10 11:33:37;;;;;;;9.13;7.25;;;21.90;99.90;;;;;;5010955;28;20057;-81
2022/05/10 11:36:11;;;;;;;12.45;7.63;;;22.00;99.90;;;;;;5012011;28;20412;-80
2022/05/10 11:38:59;;;;;;;26.40;9.00;;;22.30;99.90;;;;;;5012594;28;20052;-80
2022/05/10 11:41:42;;;;;;;12.70;6.55;;;22.20;99.90;;;;;;4993883;28;20053;-82
2022/05/10 11:44:23;;;;;;;11.45;7.30;;;22.20;99.90;;;;;;5010586;28;20439;-79
2022/05/10 11:47:10;;;;;;;14.40;5.90;;;22.10;99.90;;;;;;5012012;28;20060;-80
2022/05/10 11:49:55;;;;;;;13.25;5.13;;;22.10;99.90;;;;;;5011625;28;20042;-81
2022/05/10 11:52:46;;;;;;;6.88;4.32;;;21.80;99.90;;;;;;5011105;28;20654;-80
2022/05/10 11:55:36;;;;;;;10.23;4.03;;;21.70;99.90;;;;;;4997774;28;20463;-80
2022/05/10 11:58:08;;;;;;;8.48;4.13;;;21.80;99.90;;;;;;5010785;28;20459;-80
2022/05/10 12:00:34;;;;;;;13.77;4.63;;;21.70;99.90;;;;;;5010753;28;20042;-78
2022/05/10 12:03:05;;;;;;;10.98;4.57;;;21.50;99.90;;;;;;5012832;28;20117;-81
2022/05/10 12:05:36;;;;;;;7.93;4.38;;;21.40;99.90;;;;;;5012596;28;20077;-81
2022/05/10 12:08:02;;;;;;;;;;;21.30;99.90;;;;;;5009572;28;20139;-81
2022/05/10 12:10:40;;;;;;;5.75;3.63;;;21.40;99.90;;;;;;5009276;28;19929;-82
2022/05/10 12:22:09;;;;;;;14.40;3.00;;;21.90;99.90;;;;;;5007004;28;20060;-81
2022/05/10 12:24:45;;;;;;;4.63;2.42;;;22.00;99.90;;;;;;5009129;28;20405;-82
2022/05/10 12:27:11;;;;;;;8.15;2.47;;;22.00;99.90;;;;;;5007194;28;20054;-81
2022/05/10 12:29:40;;;;;;;7.55;2.90;;;21.80;99.90;;;;;;5009286;28;20382;-81
2022/05/10 12:32:41;;;;;;;6.90;2.50;;;21.70;99.90;;;;;;5007533;28;20508;-80
2022/05/10 12:35:23;;;;;;;6.10;2.53;;;21.50;99.90;;;;;;5008400;28;20073;-81
2022/05/10 12:37:54;;;;;;;11.18;3.55;;;21.20;99.90;;;;;;5007965;28;20050;-81
2022/05/10 12:40:41;;;;;;;11.88;2.95;;;21.10;99.90;;;;;;5008570;28;20123;-81
2022/05/10 12:43:38;;;;;;;8.20;3.13;;;21.10;99.90;;;;;;5004773;28;20054;-81
2022/05/10 12:46:37;;;;;;;6.43;2.97;;;21.10;99.90;;;;;;5007552;28;20057;-79
2022/05/10 12:49:25;;;;;;;6.93;2.47;;;21.00;99.90;;;;;;5009661;28;20042;-77
2022/05/10 12:52:20;;;;;;;9.80;2.25;;;21.10;99.90;;;;;;5009423;28;20121;-81
2022/05/10 12:54:50;;;;;;;15.45;2.55;;;21.10;99.90;;;;;;5011804;28;20050;-81
2022/05/10 12:57:29;;;;;;;12.47;2.40;;;21.00;99.90;;;;;;5013179;28;20045;-82
2022/05/10 13:00:22;;;;;;;7.43;2.25;;;21.00;99.90;;;;;;5013868;28;20103;-81
2022/05/10 13:03:06;;;;;;;7.72;1.50;;;21.00;99.90;;;;;;5006275;28;20058;-81
2022/05/10 13:05:50;;;;;;;12.25;2.35;;;21.10;99.90;;;;;;5010050;28;20042;-81
2022/05/10 13:08:34;;;;;;;10.65;1.02;;;21.00;99.90;;;;;;5009689;28;20046;-80
2022/05/10 13:11:01;;;;;;;9.48;0.98;;;20.70;99.90;;;;;;5010798;28;20069;-81
2022/05/10 13:13:31;;;;;;;10.82;1.38;;;20.70;99.90;;;;;;4992260;28;20049;-81
2022/05/10 13:15:57;;;;;;;2.67;0.95;;;20.40;99.40;;;;;;5009985;28;20050;-82
2022/05/10 13:18:25;;;;;;;8.43;1.23;;;20.30;99.30;;;;;;5009538;28;20380;-81
2022/05/10 13:20:54;;;;;;;3.35;0.98;;;20.30;98.60;;;;;;5010009;28;20443;-79
2022/05/10 13:23:25;;;;;;;6.05;1.10;;;20.30;98.80;;;;;;5007152;28;20044;-80